Time;durP1;ratioP1;P1;durP2;ratioP2;P2;SDS_P1;SDS_P2;PMS_P1;PMS_P2;Temp;Humidity;BMP_temperature;BMP_pressure;BME280_temperature;BME280_humidity;BME280_pressure;Samples;Min_cycle;Max_cycle;Signal;HPM_P1;HPM_P2
2024/01/11 00:02:14;;;;;;;0.08;0.08;;;-3274.40;79.90;;;;;;4948781;28;20692;-68
2024/01/11 00:04:40;;;;;;;0.17;0.17;;;-3274.40;79.70;;;;;;4948749;28;20468;-68
2024/01/11 00:07:06;;;;;;;0.10;0.10;;;-3274.30;79.60;;;;;;4951613;28;20078;-68
2024/01/11 00:09:31;;;;;;;0.10;0.10;;;-3274.30;79.60;;;;;;4948756;28;20444;-68
2024/01/11 00:11:57;;;;;;;0.05;0.05;;;-3274.30;79.40;;;;;;4977383;28;20051;-68
2024/01/11 00:14:23;;;;;;;0.20;0.20;;;-3274.20;79.60;;;;;;4949516;28;20178;-68
2024/01/11 00:16:48;;;;;;;0.10;0.10;;;-3274.20;79.50;;;;;;4948365;28;20489;-68
2024/01/11 00:19:14;;;;;;;0.10;0.10;;;-3274.10;79.70;;;;;;4949417;28;20040;-68
2024/01/11 00:21:40;;;;;;;0.10;0.10;;;-3274.10;80.00;;;;;;4949862;28;20098;-68
2024/01/11 00:24:05;;;;;;;0.63;0.63;;;-3274.00;80.10;;;;;;4947821;28;20109;-68
2024/01/11 00:26:31;;;;;;;0.10;0.10;;;-3274.00;80.10;;;;;;4951630;28;20054;-68
2024/01/11 00:28:57;;;;;;;0.10;0.10;;;-3274.10;80.30;;;;;;4952541;28;20047;-68
2024/01/11 00:31:22;;;;;;;0.10;0.10;;;-3273.90;80.50;;;;;;4952864;28;20543;-68
2024/01/11 00:33:48;;;;;;;0.22;0.22;;;-3273.90;80.70;;;;;;4951851;28;20122;-68
2024/01/11 00:36:20;;;;;;;0.30;0.30;;;-3273.90;80.80;;;;;;4952727;28;20183;-68
2024/01/11 00:38:46;;;;;;;;;;;-3273.90;80.60;;;;;;4952705;28;20500;-68
2024/01/11 00:41:11;;;;;;;0.15;0.15;;;-3273.90;80.60;;;;;;4951532;28;19937;-68
2024/01/11 00:43:37;;;;;;;0.10;0.10;;;-3273.90;80.90;;;;;;4964878;28;20058;-68
2024/01/11 00:46:03;;;;;;;0.10;0.10;;;-3273.90;80.80;;;;;;4971018;28;20073;-68
2024/01/11 00:48:28;;;;;;;0.10;0.10;;;-3273.90;81.00;;;;;;4954402;28;20051;-68
2024/01/11 00:50:54;;;;;;;4.57;3.83;;;-3273.90;81.10;;;;;;4951687;28;20131;-68
2024/01/11 00:53:20;;;;;;;0.20;0.20;;;-3273.90;81.20;;;;;;4951562;28;20382;-68
2024/01/11 00:55:45;;;;;;;0.10;0.10;;;-3273.80;81.30;;;;;;4952149;28;20477;-68
2024/01/11 00:58:11;;;;;;;0.10;0.10;;;-3273.80;81.40;;;;;;4951389;28;20870;-68
2024/01/11 01:00:37;;;;;;;1.10;1.08;;;-3273.70;81.60;;;;;;4951607;28;20877;-68
2024/01/11 01:03:03;;;;;;;0.40;0.40;;;-3273.70;81.60;;;;;;4951383;28;20134;-68
2024/01/11 01:05:28;;;;;;;0.30;0.30;;;-3273.80;81.40;;;;;;4951536;28;20051;-68
2024/01/11 01:07:54;;;;;;;0.10;0.10;;;-3273.70;81.50;;;;;;4953917;28;20444;-68
2024/01/11 01:10:19;;;;;;;0.22;0.22;;;-3273.70;81.80;;;;;;4951215;28;20055;-68
2024/01/11 01:12:45;;;;;;;0.10;0.10;;;-3273.70;81.90;;;;;;4952429;28;20043;-68
2024/01/11 01:15:11;;;;;;;0.35;0.35;;;-3273.70;81.70;;;;;;4951290;28;20101;-68
2024/01/11 01:17:37;;;;;;;3.85;1.67;;;-3273.70;81.70;;;;;;4949977;28;20057;-68
2024/01/11 01:20:03;;;;;;;0.13;0.13;;;-3273.70;81.80;;;;;;4950898;28;20047;-68
2024/01/11 01:22:29;;;;;;;0.30;0.30;;;-3273.60;81.80;;;;;;4951832;28;20526;-68
2024/01/11 01:24:54;;;;;;;0.10;0.10;;;-3273.70;82.00;;;;;;4969895;28;20137;-68
2024/01/11 01:27:20;;;;;;;0.22;0.22;;;-3273.60;82.10;;;;;;4965616;28;20086;-68
2024/01/11 01:29:46;;;;;;;0.10;0.10;;;-3273.60;82.00;;;;;;4952010;28;20504;-68
2024/01/11 01:32:11;;;;;;;0.10;0.10;;;-3273.60;82.30;;;;;;4951714;28;20122;-68
2024/01/11 01:34:37;;;;;;;0.10;0.10;;;-3273.60;82.20;;;;;;4950784;28;20472;-68
2024/01/11 01:37:03;;;;;;;1.77;0.85;;;-3273.60;82.30;;;;;;4950309;28;20043;-68
2024/01/11 01:39:28;;;;;;;0.47;0.47;;;-3273.60;82.30;;;;;;4953310;28;20113;-68
2024/01/11 01:41:54;;;;;;;0.10;0.10;;;-3273.70;82.20;;;;;;4950942;28;20047;-68
2024/01/11 01:44:20;;;;;;;0.10;0.10;;;-3273.70;82.30;;;;;;4961326;28;20452;-68
2024/01/11 01:46:46;;;;;;;0.10;0.10;;;-3273.70;82.40;;;;;;4950327;29;20058;-68
2024/01/11 01:49:13;;;;;;;0.10;0.10;;;-3273.80;82.40;;;;;;4949069;28;20097;-68
2024/01/11 01:51:38;;;;;;;0.10;0.10;;;-3273.70;82.50;;;;;;4966091;28;20081;-68
2024/01/11 01:54:05;;;;;;;0.73;0.73;;;-3273.80;82.50;;;;;;4950362;28;20950;-68
2024/01/11 01:56:31;;;;;;;0.10;0.10;;;-3273.80;82.50;;;;;;4950428;28;20059;-68
2024/01/11 01:59:00;;;;;;;0.10;0.10;;;-3273.90;82.40;;;;;;4950301;29;20053;-68
2024/01/11 02:01:27;;;;;;;0.10;0.10;;;-3273.90;82.40;;;;;;4948361;28;20115;-68
2024/01/11 02:03:54;;;;;;;1.02;0.95;;;-3273.80;82.40;;;;;;4950394;28;20174;-68
2024/01/11 02:06:23;;;;;;;2.38;2.20;;;-3273.90;82.40;;;;;;4950820;28;20114;-69
2024/01/11 02:08:51;;;;;;;0.10;0.10;;;-3273.90;82.50;;;;;;4949910;28;20054;-68
2024/01/11 02:11:19;;;;;;;0.20;0.20;;;-3274.00;82.20;;;;;;4950093;28;20818;-68
2024/01/11 02:13:45;;;;;;;8.15;2.35;;;-3274.00;82.10;;;;;;4950979;28;20055;-68
2024/01/11 02:16:12;;;;;;;0.03;0.03;;;-3274.00;82.10;;;;;;4950936;28;20059;-68
2024/01/11 02:18:38;;;;;;;0.52;0.52;;;-3274.00;82.20;;;;;;4965137;28;20050;-68
2024/01/11 02:21:09;;;;;;;0.10;0.10;;;-3274.00;82.20;;;;;;4948876;28;20043;-68
2024/01/11 02:23:42;;;;;;;0.32;0.32;;;-3274.00;82.10;;;;;;4961626;28;20055;-68
2024/01/11 02:26:07;;;;;;;0.10;0.10;;;-3274.10;82.10;;;;;;4956204;28;20082;-68
2024/01/11 02:28:33;;;;;;;0.10;0.10;;;-3274.10;82.00;;;;;;4948651;28;20126;-69
2024/01/11 02:30:59;;;;;;;0.03;0.03;;;-3274.10;82.10;;;;;;4965122;28;20047;-69
2024/01/11 02:33:24;;;;;;;0.00;0.00;;;-3274.10;82.20;;;;;;4960830;28;20050;-69
2024/01/11 02:35:50;;;;;;;0.10;0.10;;;-3274.10;82.20;;;;;;4960987;28;20540;-68
2024/01/11 02:38:16;;;;;;;0.10;0.10;;;-3274.20;82.10;;;;;;4948818;28;20054;-69
2024/01/11 02:40:44;;;;;;;0.80;0.77;;;-3274.20;82.00;;;;;;4948081;28;20404;-69
2024/01/11 02:43:10;;;;;;;0.10;0.10;;;-3274.20;82.10;;;;;;4949370;28;20058;-69
2024/01/11 02:45:37;;;;;;;0.00;0.00;;;-3274.20;82.00;;;;;;4948322;28;20074;-69
2024/01/11 02:48:03;;;;;;;0.00;0.00;;;-3274.20;82.00;;;;;;4948930;28;20461;-69
2024/01/11 02:50:28;;;;;;;0.10;0.10;;;-3274.20;82.00;;;;;;4948539;28;20061;-69
2024/01/11 02:52:54;;;;;;;0.10;0.10;;;-3274.20;82.00;;;;;;4954642;28;20126;-68
2024/01/11 02:55:19;;;;;;;0.10;0.10;;;-3274.20;81.90;;;;;;4948558;28;20098;-68
2024/01/11 02:57:45;;;;;;;0.10;0.10;;;-3274.20;81.80;;;;;;4950203;28;20039;-69
2024/01/11 03:00:11;;;;;;;0.10;0.10;;;-3274.20;81.80;;;;;;4954172;28;20047;-68
2024/01/11 03:02:38;;;;;;;0.00;0.00;;;-3274.20;81.80;;;;;;4947832;28;20047;-68
2024/01/11 03:05:04;;;;;;;0.10;0.10;;;-3274.30;81.80;;;;;;4948367;28;20059;-68
2024/01/11 03:07:30;;;;;;;0.10;0.10;;;-3274.30;81.80;;;;;;4956796;28;20050;-69
2024/01/11 03:09:56;;;;;;;0.10;0.10;;;-3274.30;81.70;;;;;;4948108;28;20051;-69
2024/01/11 03:12:22;;;;;;;0.10;0.10;;;-3274.30;81.60;;;;;;4953045;28;20039;-69
2024/01/11 03:14:48;;;;;;;0.10;0.10;;;-3274.40;81.50;;;;;;4951978;28;20054;-69
2024/01/11 03:17:13;;;;;;;0.10;0.10;;;-3274.40;81.50;;;;;;4957990;28;20527;-69
2024/01/11 03:19:40;;;;;;;0.10;0.10;;;-3274.40;81.40;;;;;;4951839;28;20043;-69
2024/01/11 03:22:06;;;;;;;0.10;0.10;;;-3274.40;81.30;;;;;;4947507;28;20040;-68
2024/01/11 03:24:32;;;;;;;0.20;0.20;;;-3274.30;81.30;;;;;;4949101;28;20094;-69
2024/01/11 03:26:58;;;;;;;0.10;0.10;;;-3274.40;81.40;;;;;;4947951;28;20055;-69
2024/01/11 03:29:24;;;;;;;0.00;0.00;;;-3274.40;81.30;;;;;;4966487;28;20054;-69
2024/01/11 03:31:49;;;;;;;0.10;0.10;;;-3274.40;81.30;;;;;;4947622;28;20497;-69
2024/01/11 03:34:15;;;;;;;0.00;0.00;;;-3274.40;81.20;;;;;;4947987;28;20046;-68
2024/01/11 03:36:42;;;;;;;0.10;0.10;;;-3274.40;81.20;;;;;;4947227;28;20059;-68
2024/01/11 03:39:07;;;;;;;0.10;0.10;;;-3274.40;81.20;;;;;;4950004;28;20889;-69
2024/01/11 03:41:33;;;;;;;0.10;0.10;;;-3274.40;81.00;;;;;;4966736;28;20575;-69
2024/01/11 03:43:59;;;;;;;0.10;0.10;;;-3274.40;81.10;;;;;;4966686;28;20053;-69
2024/01/11 03:46:24;;;;;;;0.10;0.10;;;-3274.50;81.10;;;;;;4963553;28;20043;-68
2024/01/11 03:48:50;;;;;;;0.10;0.10;;;-3274.40;81.00;;;;;;4947842;28;20511;-69
2024/01/11 03:51:16;;;;;;;0.10;0.10;;;-3274.40;80.90;;;;;;4950133;28;20097;-69
2024/01/11 03:53:41;;;;;;;0.10;0.10;;;-3274.40;81.00;;;;;;4966262;28;20046;-69
2024/01/11 03:56:07;;;;;;;0.10;0.10;;;-3274.40;81.00;;;;;;4949819;28;20043;-69
2024/01/11 03:58:32;;;;;;;0.50;0.50;;;-3274.40;80.90;;;;;;4947701;28;20055;-69
2024/01/11 04:00:59;;;;;;;0.10;0.10;;;-3274.40;80.90;;;;;;4951353;28;20093;-68
2024/01/11 04:03:25;;;;;;;0.10;0.10;;;-3274.40;80.90;;;;;;4953593;28;20062;-69
2024/01/11 04:05:50;;;;;;;0.10;0.10;;;-3274.40;80.90;;;;;;4951989;28;20717;-69
2024/01/11 04:08:16;;;;;;;0.10;0.10;;;-3274.30;80.80;;;;;;4952428;28;20153;-69
2024/01/11 04:10:42;;;;;;;0.10;0.10;;;-3274.30;80.80;;;;;;4952644;28;20179;-68
2024/01/11 04:13:08;;;;;;;0.00;0.00;;;-3274.40;81.00;;;;;;4971441;28;20047;-69
2024/01/11 04:15:33;;;;;;;0.00;0.00;;;-3274.30;80.90;;;;;;4953264;28;20118;-69
2024/01/11 04:17:59;;;;;;;8.50;1.55;;;-3274.40;81.00;;;;;;4951862;29;20146;-69
2024/01/11 04:20:24;;;;;;;0.25;0.25;;;-3274.40;80.90;;;;;;4967062;28;20825;-69
2024/01/11 04:22:50;;;;;;;0.10;0.10;;;-3274.30;80.80;;;;;;4951291;28;20058;-68
2024/01/11 04:25:16;;;;;;;0.20;0.20;;;-3274.30;80.80;;;;;;4951002;28;20043;-68
2024/01/11 04:27:41;;;;;;;0.10;0.10;;;-3274.30;80.80;;;;;;4967303;28;20130;-69
2024/01/11 04:30:07;;;;;;;0.10;0.10;;;-3274.20;80.80;;;;;;4950258;28;20043;-69
2024/01/11 04:32:33;;;;;;;0.30;0.30;;;-3274.10;80.80;;;;;;4950864;29;20581;-68
2024/01/11 04:34:58;;;;;;;0.10;0.10;;;-3274.10;80.90;;;;;;4950987;28;20476;-69
2024/01/11 04:37:24;;;;;;;0.03;0.03;;;-3274.10;80.90;;;;;;4951445;28;20039;-68
2024/01/11 04:39:50;;;;;;;0.10;0.10;;;-3274.10;80.90;;;;;;4950609;28;20078;-68
2024/01/11 04:42:15;;;;;;;0.00;0.00;;;-3274.20;80.90;;;;;;4967847;28;20519;-68
2024/01/11 04:44:41;;;;;;;0.10;0.10;;;-3274.10;80.90;;;;;;4950696;28;20058;-69
2024/01/11 04:47:08;;;;;;;0.10;0.10;;;-3274.10;80.80;;;;;;4950004;28;20055;-69
2024/01/11 04:49:34;;;;;;;0.10;0.10;;;-3274.10;80.90;;;;;;4966781;28;20054;-69
2024/01/11 04:51:59;;;;;;;0.10;0.10;;;-3274.10;80.90;;;;;;4950056;28;20393;-69
2024/01/11 04:54:25;;;;;;;0.52;0.52;;;-3274.10;80.90;;;;;;4951256;28;20139;-68
2024/01/11 04:56:50;;;;;;;0.10;0.10;;;-3274.10;80.90;;;;;;4950520;29;20426;-68
2024/01/11 04:59:16;;;;;;;0.17;0.17;;;-3274.10;80.90;;;;;;4967828;28;20464;-68
2024/01/11 05:01:42;;;;;;;0.98;0.60;;;-3274.10;80.90;;;;;;4951285;28;20054;-69
2024/01/11 05:04:08;;;;;;;0.10;0.10;;;-3274.10;80.90;;;;;;4950728;28;20051;-69
2024/01/11 05:06:34;;;;;;;0.10;0.10;;;-3274.10;80.90;;;;;;4953935;28;20059;-69
2024/01/11 05:09:00;;;;;;;1.48;0.75;;;-3274.10;80.90;;;;;;4967965;28;20047;-69
2024/01/11 05:11:26;;;;;;;0.10;0.10;;;-3274.10;80.90;;;;;;4956358;28;20043;-69
2024/01/11 05:13:52;;;;;;;0.30;0.30;;;-3274.10;80.90;;;;;;4951683;28;20061;-69
2024/01/11 05:16:28;;;;;;;0.00;0.00;;;-3274.10;80.90;;;;;;4967107;28;20404;-69
2024/01/11 05:18:56;;;;;;;0.10;0.10;;;-3274.10;80.90;;;;;;4952307;28;20409;-69
2024/01/11 05:21:23;;;;;;;0.60;0.55;;;-3274.20;81.00;;;;;;4950993;28;20047;-69
2024/01/11 05:23:49;;;;;;;0.10;0.10;;;-3274.20;81.00;;;;;;4966817;28;20039;-69
2024/01/11 05:26:15;;;;;;;0.10;0.10;;;-3274.20;80.90;;;;;;4967061;28;20039;-69
2024/01/11 05:28:41;;;;;;;0.10;0.10;;;-3274.20;81.10;;;;;;4950049;28;20422;-69
2024/01/11 05:31:17;;;;;;;0.00;0.00;;;-3274.20;81.10;;;;;;4950476;29;20115;-69
2024/01/11 05:33:43;;;;;;;0.10;0.10;;;-3274.30;81.20;;;;;;4951663;28;20090;-69
2024/01/11 05:36:09;;;;;;;0.10;0.10;;;-3274.40;81.20;;;;;;4947907;28;20400;-69
2024/01/11 05:38:35;;;;;;;0.10;0.10;;;-3274.40;81.10;;;;;;4957039;28;20054;-69
2024/01/11 05:41:01;;;;;;;0.10;0.10;;;-3274.50;81.20;;;;;;4965635;28;20109;-69
2024/01/11 05:43:27;;;;;;;0.10;0.10;;;-3274.50;81.20;;;;;;4955365;28;20585;-69
2024/01/11 05:45:53;;;;;;;0.10;0.10;;;-3274.60;81.30;;;;;;4949286;28;20126;-69
2024/01/11 05:48:19;;;;;;;0.35;0.35;;;-3274.60;81.30;;;;;;4949786;28;20106;-69
2024/01/11 05:50:44;;;;;;;0.32;0.32;;;-3274.60;81.30;;;;;;4965739;28;20047;-69
2024/01/11 05:53:11;;;;;;;0.28;0.28;;;-3274.70;81.20;;;;;;4965022;28;20051;-69
2024/01/11 05:55:37;;;;;;;0.10;0.10;;;-3274.80;81.30;;;;;;4965548;28;20046;-68
2024/01/11 05:58:03;;;;;;;0.10;0.10;;;-3274.80;81.50;;;;;;4949139;29;20047;-69
2024/01/11 06:00:29;;;;;;;0.00;0.00;;;-3274.90;81.40;;;;;;4948362;28;20058;-68
2024/01/11 06:02:54;;;;;;;0.10;0.10;;;-3275.00;81.30;;;;;;4948992;28;20417;-69
2024/01/11 06:05:20;;;;;;;0.10;0.10;;;-3275.00;81.30;;;;;;4949384;28;20058;-69
2024/01/11 06:07:47;;;;;;;0.10;0.10;;;-3275.10;81.30;;;;;;4961830;28;20885;-69
2024/01/11 06:10:13;;;;;;;0.10;0.10;;;-3275.10;81.20;;;;;;4948521;28;20070;-69
2024/01/11 06:12:40;;;;;;;0.00;0.00;;;-3275.20;81.20;;;;;;4948881;28;20098;-69
2024/01/11 06:15:06;;;;;;;0.10;0.10;;;-3275.20;81.20;;;;;;4949321;28;20051;-69
2024/01/11 06:17:32;;;;;;;0.73;0.73;;;-3275.20;81.10;;;;;;4949082;28;20062;-69
2024/01/11 06:19:58;;;;;;;0.10;0.10;;;-3275.20;81.10;;;;;;4949758;28;20488;-69
2024/01/11 06:22:23;;;;;;;0.00;0.00;;;-3275.30;81.10;;;;;;4960701;28;20051;-69
2024/01/11 06:24:49;;;;;;;0.57;0.57;;;-3275.30;81.20;;;;;;4964915;28;20054;-69
2024/01/11 06:27:15;;;;;;;3.10;1.55;;;-3275.30;81.10;;;;;;4964570;28;20043;-69
2024/01/11 06:29:40;;;;;;;0.10;0.10;;;-3275.40;81.10;;;;;;4949429;28;20063;-69
2024/01/11 06:32:06;;;;;;;0.10;0.10;;;-3275.40;81.20;;;;;;4964069;28;20039;-67
2024/01/11 06:34:32;;;;;;;0.00;0.00;;;-3275.40;81.20;;;;;;4948680;28;20082;-69
2024/01/11 06:36:57;;;;;;;0.13;0.13;;;-3275.50;81.30;;;;;;4947377;28;20070;-69
2024/01/11 06:39:23;;;;;;;0.03;0.03;;;-3275.50;81.40;;;;;;4950204;28;20582;-69
2024/01/11 06:41:49;;;;;;;0.45;0.45;;;-3275.50;81.40;;;;;;4966282;28;20524;-69
2024/01/11 06:44:14;;;;;;;0.10;0.10;;;-3275.50;81.40;;;;;;4948039;28;20535;-69
2024/01/11 06:46:41;;;;;;;0.75;0.75;;;-3275.60;81.30;;;;;;4948355;28;20401;-69
2024/01/11 06:49:07;;;;;;;0.10;0.10;;;-3275.50;81.40;;;;;;4948264;28;20386;-69
2024/01/11 06:51:33;;;;;;;0.10;0.10;;;-3275.60;81.50;;;;;;4956043;28;20053;-68
2024/01/11 06:54:00;;;;;;;0.15;0.15;;;-3275.60;81.50;;;;;;4952706;28;20043;-69
2024/01/11 06:56:27;;;;;;;1.17;1.17;;;-3275.60;81.40;;;;;;4948947;28;20094;-69
2024/01/11 06:58:52;;;;;;;0.10;0.10;;;-3275.70;81.40;;;;;;4949398;28;20055;-69
2024/01/11 07:01:18;;;;;;;2.42;1.27;;;-3275.60;81.50;;;;;;4950253;28;20054;-70
2024/01/11 07:03:44;;;;;;;0.10;0.10;;;-3275.70;81.60;;;;;;4948929;28;20051;-69
2024/01/11 07:06:10;;;;;;;0.28;0.28;;;-3275.70;81.70;;;;;;4955622;28;20126;-70
2024/01/11 07:08:36;;;;;;;1.05;1.05;;;-3275.60;81.60;;;;;;4954949;28;20055;-70
2024/01/11 07:11:02;;;;;;;0.10;0.10;;;-3275.70;81.60;;;;;;4973667;28;20055;-69
2024/01/11 07:13:31;;;;;;;0.63;0.63;;;-3275.70;81.60;;;;;;4948401;29;20531;-70
2024/01/11 07:15:58;;;;;;;0.63;0.63;;;-3275.70;81.70;;;;;;4948428;28;20054;-70
2024/01/11 07:18:24;;;;;;;0.57;0.57;;;-3275.70;81.80;;;;;;4954817;28;20089;-69
2024/01/11 07:20:51;;;;;;;0.00;0.00;;;-3275.80;82.00;;;;;;4956766;28;20069;-70
2024/01/11 07:23:16;;;;;;;0.10;0.10;;;-3275.80;82.00;;;;;;4947229;28;20097;-69
2024/01/11 07:25:42;;;;;;;0.10;0.10;;;-3275.90;82.10;;;;;;4944645;28;20047;-70
2024/01/11 07:28:08;;;;;;;0.75;0.75;;;-3275.90;82.10;;;;;;4947168;28;20058;-70
2024/01/11 07:30:34;;;;;;;0.13;0.13;;;-3275.90;82.00;;;;;;4949220;28;20044;-70
2024/01/11 07:33:00;;;;;;;0.22;0.22;;;-3275.80;82.00;;;;;;4949884;28;20098;-70
2024/01/11 07:35:26;;;;;;;0.10;0.10;;;-3275.90;81.90;;;;;;4946367;28;20071;-71
2024/01/11 07:37:51;;;;;;;0.47;0.47;;;-3276.00;82.20;;;;;;4947633;28;20058;-71
2024/01/11 07:40:17;;;;;;;0.10;0.10;;;-3276.00;82.30;;;;;;4948373;28;20043;-70
2024/01/11 07:42:43;;;;;;;0.10;0.10;;;-3276.10;82.20;;;;;;4948097;28;20087;-71
2024/01/11 07:45:10;;;;;;;0.10;0.10;;;-3276.20;82.20;;;;;;4948159;28;20050;-70
2024/01/11 07:47:39;;;;;;;0.10;0.10;;;-3276.20;82.10;;;;;;4944318;28;20058;-69
2024/01/11 07:50:09;;;;;;;0.00;0.00;;;-3276.30;82.10;;;;;;4941891;28;20043;-70
2024/01/11 07:52:36;;;;;;;0.10;0.10;;;-3276.30;81.90;;;;;;4961681;28;20051;-69
2024/01/11 07:55:26;;;;;;;0.00;0.00;;;-3276.30;81.90;;;;;;4947599;28;20043;-70
2024/01/11 07:58:05;;;;;;;0.13;0.13;;;-3276.30;81.90;;;;;;4950144;28;20486;-70
2024/01/11 08:00:31;;;;;;;0.10;0.10;;;-3276.30;81.90;;;;;;4971230;28;20063;-71
2024/01/11 08:02:56;;;;;;;0.10;0.10;;;-3276.40;81.90;;;;;;4956794;28;20047;-70
2024/01/11 08:05:23;;;;;;;0.10;0.10;;;-3276.40;81.90;;;;;;4954902;28;20416;-71
2024/01/11 08:07:48;;;;;;;0.10;0.10;;;-3276.50;82.60;;;;;;4955295;28;20090;-71
2024/01/11 08:10:14;;;;;;;0.10;0.10;;;-3276.50;82.30;;;;;;4955855;28;20070;-71
2024/01/11 08:12:40;;;;;;;0.10;0.10;;;-3276.50;82.30;;;;;;4954724;28;20051;-71
2024/01/11 08:15:06;;;;;;;0.10;0.10;;;-3276.50;82.30;;;;;;4971360;28;20051;-70
2024/01/11 08:17:31;;;;;;;1.10;1.10;;;-3276.60;82.20;;;;;;4954141;28;20559;-71
2024/01/11 08:19:57;;;;;;;0.10;0.10;;;-3276.60;82.30;;;;;;4954918;28;20041;-71
2024/01/11 08:22:23;;;;;;;0.00;0.00;;;-3276.60;82.30;;;;;;4955513;28;20097;-70
2024/01/11 08:24:49;;;;;;;0.82;0.82;;;-3276.70;82.30;;;;;;4954652;28;20450;-71
2024/01/11 08:27:17;;;;;;;0.00;0.00;;;-3276.70;82.10;;;;;;4955833;28;20094;-70
2024/01/11 08:29:43;;;;;;;0.00;0.00;;;-3276.70;82.10;;;;;;4955426;28;20054;-71
2024/01/11 08:32:09;;;;;;;0.15;0.15;;;-3276.70;82.10;;;;;;4955358;28;20572;-68
2024/01/11 08:34:34;;;;;;;0.10;0.10;;;0.00;82.10;;;;;;4956244;28;20047;-68
2024/01/11 08:37:00;;;;;;;0.10;0.10;;;0.00;82.10;;;;;;4955126;28;20038;-69
2024/01/11 08:39:26;;;;;;;0.10;0.10;;;0.00;82.20;;;;;;4955401;28;20150;-68
2024/01/11 08:41:52;;;;;;;0.32;0.32;;;-3276.70;82.10;;;;;;4952130;28;20038;-69
2024/01/11 08:45:08;;;;;;;0.10;0.10;;;-3276.70;82.40;;;;;;4951617;28;20123;-70
2024/01/11 08:47:45;;;;;;;0.10;0.10;;;0.00;82.50;;;;;;4948831;28;20047;-71
2024/01/11 08:50:14;;;;;;;1.27;0.60;;;0.00;82.50;;;;;;4957558;28;20043;-70
2024/01/11 08:52:40;;;;;;;0.10;0.10;;;0.00;82.60;;;;;;4957266;28;20130;-68
2024/01/11 08:55:07;;;;;;;0.10;0.10;;;0.00;82.60;;;;;;4959009;28;20146;-68
2024/01/11 08:57:33;;;;;;;0.10;0.10;;;0.10;82.80;;;;;;4956260;28;20412;-69
2024/01/11 08:59:59;;;;;;;0.90;0.90;;;0.10;82.70;;;;;;4957452;28;20045;-68
2024/01/11 09:02:24;;;;;;;0.00;0.00;;;0.20;82.80;;;;;;4957088;28;20853;-70
2024/01/11 09:04:50;;;;;;;0.52;0.52;;;0.20;82.60;;;;;;4958364;28;20420;-70
2024/01/11 09:07:16;;;;;;;1.27;1.20;;;0.20;82.40;;;;;;4959210;28;20043;-70
2024/01/11 09:09:41;;;;;;;0.47;0.47;;;0.20;82.50;;;;;;4958770;28;20042;-70
2024/01/11 09:12:07;;;;;;;0.35;0.35;;;0.20;82.80;;;;;;4959524;28;20035;-70
2024/01/11 09:14:32;;;;;;;0.15;0.15;;;0.20;82.90;;;;;;4959175;28;20034;-69
2024/01/11 09:16:58;;;;;;;0.10;0.10;;;0.30;82.80;;;;;;4957758;28;20061;-69
2024/01/11 09:19:24;;;;;;;0.10;0.10;;;0.30;82.90;;;;;;4959885;28;20520;-69
2024/01/11 09:21:49;;;;;;;0.10;0.10;;;0.40;82.80;;;;;;4958568;28;20606;-69
2024/01/11 09:24:15;;;;;;;0.10;0.10;;;0.40;82.80;;;;;;4959086;28;20054;-70
2024/01/11 09:26:41;;;;;;;0.50;0.50;;;0.40;82.80;;;;;;4958802;28;20042;-70
2024/01/11 09:29:06;;;;;;;0.10;0.10;;;0.40;82.80;;;;;;4957951;28;20095;-70
2024/01/11 09:31:32;;;;;;;0.10;0.10;;;0.50;82.90;;;;;;4957367;28;20688;-68
2024/01/11 09:33:58;;;;;;;0.10;0.10;;;0.40;82.80;;;;;;4958324;28;20779;-68
2024/01/11 09:36:23;;;;;;;0.05;0.05;;;0.50;83.00;;;;;;4956264;28;20043;-68
2024/01/11 09:38:49;;;;;;;0.03;0.03;;;0.50;83.50;;;;;;4957480;28;20046;-68
2024/01/11 09:41:15;;;;;;;0.10;0.10;;;0.50;83.40;;;;;;4958242;28;20047;-68
2024/01/11 09:43:42;;;;;;;0.00;0.00;;;0.60;83.70;;;;;;4958205;28;20042;-67
2024/01/11 09:46:09;;;;;;;0.10;0.10;;;0.60;83.90;;;;;;4958642;28;20039;-68
2024/01/11 09:48:37;;;;;;;1.30;0.52;;;0.60;83.90;;;;;;4958983;28;20122;-68
2024/01/11 09:51:04;;;;;;;3.03;1.55;;;0.60;84.20;;;;;;4958188;28;20082;-68
2024/01/11 09:53:33;;;;;;;0.32;0.32;;;0.70;84.40;;;;;;4959634;28;20133;-68
2024/01/11 09:56:00;;;;;;;0.70;0.70;;;0.70;84.10;;;;;;4956629;28;20043;-68
2024/01/11 09:58:26;;;;;;;0.47;0.47;;;0.70;83.90;;;;;;4958640;28;20094;-69
2024/01/11 10:00:56;;;;;;;0.15;0.15;;;0.70;84.20;;;;;;4947264;28;20039;-69
2024/01/11 10:03:26;;;;;;;0.05;0.05;;;0.80;84.30;;;;;;4951957;28;20138;-69
2024/01/11 10:05:56;;;;;;;0.10;0.10;;;0.90;84.30;;;;;;4950374;28;20074;-68
2024/01/11 10:08:23;;;;;;;0.10;0.10;;;1.00;84.20;;;;;;4950165;28;20126;-68
2024/01/11 10:10:49;;;;;;;0.55;0.55;;;1.00;84.20;;;;;;4950283;28;20039;-68
2024/01/11 10:13:18;;;;;;;1.13;1.08;;;1.10;84.20;;;;;;4950570;28;20642;-69
2024/01/11 10:15:44;;;;;;;0.10;0.10;;;1.10;84.30;;;;;;4949778;28;20075;-69
2024/01/11 10:18:10;;;;;;;0.10;0.10;;;1.10;84.60;;;;;;4949034;28;20137;-69
2024/01/11 10:20:37;;;;;;;0.10;0.10;;;1.20;84.30;;;;;;4948849;28;20786;-68
2024/01/11 10:23:03;;;;;;;0.73;0.73;;;1.20;84.30;;;;;;4944169;28;20647;-69
2024/01/11 10:25:28;;;;;;;0.10;0.10;;;1.30;84.60;;;;;;4949069;28;20051;-69
2024/01/11 10:27:54;;;;;;;0.10;0.10;;;1.40;84.70;;;;;;4949801;28;20085;-69
2024/01/11 10:30:22;;;;;;;0.13;0.13;;;1.40;84.80;;;;;;4953741;28;20091;-69
2024/01/11 10:32:48;;;;;;;0.10;0.10;;;1.40;84.90;;;;;;4957955;28;20055;-69
2024/01/11 10:35:14;;;;;;;0.10;0.10;;;1.40;85.00;;;;;;4949780;28;20079;-68
2024/01/11 10:37:42;;;;;;;1.13;1.02;;;1.40;85.00;;;;;;4948671;29;20078;-68
2024/01/11 10:40:15;;;;;;;0.85;0.63;;;1.40;84.90;;;;;;4949736;28;20047;-68
2024/01/11 10:42:45;;;;;;;0.10;0.10;;;1.40;84.90;;;;;;4951502;28;20048;-68
2024/01/11 10:45:16;;;;;;;0.00;0.00;;;1.50;85.10;;;;;;4960508;28;20389;-68
2024/01/11 10:48:01;;;;;;;1.27;1.17;;;1.50;85.70;;;;;;4965151;28;20408;-68
2024/01/11 10:50:30;;;;;;;0.10;0.10;;;1.40;85.50;;;;;;4946968;28;20043;-69
2024/01/11 10:53:03;;;;;;;0.10;0.10;;;1.60;85.70;;;;;;4948996;28;20412;-69
2024/01/11 10:55:31;;;;;;;0.10;0.10;;;1.60;85.80;;;;;;4952572;28;20058;-70
2024/01/11 10:57:59;;;;;;;0.10;0.10;;;1.70;85.70;;;;;;4946347;28;20070;-70
2024/01/11 11:00:26;;;;;;;1.75;1.50;;;1.70;85.80;;;;;;4946777;28;20082;-70
2024/01/11 11:02:54;;;;;;;0.10;0.10;;;1.70;85.70;;;;;;4949604;28;20051;-70
2024/01/11 11:05:21;;;;;;;0.20;0.20;;;1.80;85.70;;;;;;4950165;28;20059;-68
2024/01/11 11:07:49;;;;;;;0.47;0.47;;;1.80;85.40;;;;;;4946747;28;20669;-68
2024/01/11 11:10:18;;;;;;;0.52;0.52;;;1.90;85.20;;;;;;4947111;28;20046;-69
2024/01/11 11:12:46;;;;;;;0.03;0.03;;;1.90;85.20;;;;;;4951031;28;20101;-68
2024/01/11 11:15:13;;;;;;;0.47;0.47;;;2.00;85.40;;;;;;4945060;28;20059;-69
2024/01/11 11:17:40;;;;;;;0.20;0.20;;;2.00;85.50;;;;;;4970185;28;20116;-68
2024/01/11 11:20:13;;;;;;;0.00;0.00;;;2.00;85.20;;;;;;4948653;28;20043;-68
2024/01/11 11:22:42;;;;;;;0.35;0.35;;;2.00;85.30;;;;;;4948692;28;20041;-68
2024/01/11 11:25:24;;;;;;;0.10;0.10;;;2.10;85.30;;;;;;4952654;28;20039;-68
2024/01/11 11:27:50;;;;;;;1.45;1.35;;;2.10;85.30;;;;;;4946611;28;20043;-68
2024/01/11 11:30:20;;;;;;;0.10;0.10;;;2.10;85.50;;;;;;4947330;28;20704;-68
2024/01/11 11:32:46;;;;;;;0.10;0.10;;;2.10;86.20;;;;;;4952361;28;20047;-68
2024/01/11 11:35:12;;;;;;;0.47;0.47;;;2.10;86.30;;;;;;4953125;28;20057;-68
2024/01/11 11:37:39;;;;;;;0.30;0.30;;;2.10;86.30;;;;;;4958808;28;20047;-68
2024/01/11 11:40:10;;;;;;;0.00;0.00;;;2.10;86.40;;;;;;4952589;28;20504;-68
2024/01/11 11:42:36;;;;;;;0.15;0.15;;;2.10;86.40;;;;;;4947184;28;20058;-68
2024/01/11 11:45:03;;;;;;;0.55;0.55;;;2.20;86.60;;;;;;4948463;28;20047;-68
2024/01/11 11:47:38;;;;;;;0.35;0.35;;;2.20;86.80;;;;;;4947659;28;20101;-68
2024/01/11 11:50:07;;;;;;;0.10;0.10;;;2.20;86.90;;;;;;4947646;28;20084;-68
2024/01/11 11:52:37;;;;;;;0.15;0.15;;;2.20;87.20;;;;;;4957653;28;20108;-68
2024/01/11 11:55:03;;;;;;;0.90;0.90;;;2.20;87.30;;;;;;4961774;28;20075;-68
2024/01/11 11:57:29;;;;;;;0.00;0.00;;;2.30;87.40;;;;;;4948511;28;20917;-68
2024/01/11 11:59:58;;;;;;;1.48;1.38;;;2.30;87.70;;;;;;4947172;28;20043;-68
2024/01/11 12:02:26;;;;;;;0.10;0.10;;;2.40;87.30;;;;;;4950590;28;20086;-68
2024/01/11 12:04:52;;;;;;;0.10;0.10;;;2.40;86.90;;;;;;4956135;28;20094;-69
2024/01/11 12:07:19;;;;;;;0.10;0.10;;;2.40;87.40;;;;;;4947932;28;20480;-69
2024/01/11 12:09:46;;;;;;;0.00;0.00;;;2.40;87.70;;;;;;4951237;28;20099;-68
2024/01/11 12:12:13;;;;;;;0.10;0.10;;;2.50;88.00;;;;;;4950938;28;20449;-69
2024/01/11 12:14:39;;;;;;;0.00;0.00;;;2.50;88.30;;;;;;4960135;28;20051;-68
2024/01/11 12:17:06;;;;;;;0.13;0.13;;;2.60;88.40;;;;;;4957245;28;20630;-68
2024/01/11 12:19:32;;;;;;;0.10;0.10;;;2.50;88.60;;;;;;4947940;29;20066;-68
2024/01/11 12:21:58;;;;;;;0.43;0.43;;;2.50;88.70;;;;;;4951351;28;20471;-68
2024/01/11 12:24:24;;;;;;;0.05;0.05;;;2.50;88.70;;;;;;4953154;28;20051;-69
2024/01/11 12:26:57;;;;;;;0.10;0.10;;;2.60;88.90;;;;;;4951889;28;20497;-68
2024/01/11 12:29:23;;;;;;;0.10;0.10;;;2.60;88.90;;;;;;4957932;28;20083;-69